地図

経路データ

SID SEASON NUMBER BASIN SUBBASIN NAME ISO_TIME NATURE LAT LON WMO_WIND WMO_PRES WMO_AGENCY TRACK_TYPE DIST2LAND LANDFALL IFLAG USA_AGENCY USA_ATCF_ID USA_LAT USA_LON USA_RECORD USA_STATUS USA_WIND USA_PRES USA_SSHS USA_R34_NE USA_R34_SE USA_R34_SW USA_R34_NW USA_R50_NE USA_R50_SE USA_R50_SW USA_R50_NW USA_R64_NE USA_R64_SE USA_R64_SW USA_R64_NW USA_POCI USA_ROCI USA_RMW USA_EYE TOKYO_LAT TOKYO_LON TOKYO_GRADE TOKYO_WIND TOKYO_PRES TOKYO_R50_DIR TOKYO_R50_LONG TOKYO_R50_SHORT TOKYO_R30_DIR TOKYO_R30_LONG TOKYO_R30_SHORT TOKYO_LAND CMA_LAT CMA_LON CMA_CAT CMA_WIND CMA_PRES HKO_LAT HKO_LON HKO_CAT HKO_WIND HKO_PRES NEWDELHI_LAT NEWDELHI_LON NEWDELHI_GRADE NEWDELHI_WIND NEWDELHI_PRES NEWDELHI_CI NEWDELHI_DP NEWDELHI_POCI REUNION_LAT REUNION_LON REUNION_TYPE REUNION_WIND REUNION_PRES REUNION_TNUM REUNION_CI REUNION_RMW REUNION_R34_NE REUNION_R34_SE REUNION_R34_SW REUNION_R34_NW REUNION_R50_NE REUNION_R50_SE REUNION_R50_SW REUNION_R50_NW REUNION_R64_NE REUNION_R64_SE REUNION_R64_SW REUNION_R64_NW BOM_LAT BOM_LON BOM_TYPE BOM_WIND BOM_PRES BOM_TNUM BOM_CI BOM_RMW BOM_R34_NE BOM_R34_SE BOM_R34_SW BOM_R34_NW BOM_R50_NE BOM_R50_SE BOM_R50_SW BOM_R50_NW BOM_R64_NE BOM_R64_SE BOM_R64_SW BOM_R64_NW BOM_ROCI BOM_POCI BOM_EYE BOM_POS_METHOD BOM_PRES_METHOD NADI_LAT NADI_LON NADI_CAT NADI_WIND NADI_PRES WELLINGTON_LAT WELLINGTON_LON WELLINGTON_WIND WELLINGTON_PRES DS824_LAT DS824_LON DS824_STAGE DS824_WIND DS824_PRES TD9636_LAT TD9636_LON TD9636_STAGE TD9636_WIND TD9636_PRES TD9635_LAT TD9635_LON TD9635_WIND TD9635_PRES TD9635_ROCI NEUMANN_LAT NEUMANN_LON NEUMANN_CLASS NEUMANN_WIND NEUMANN_PRES MLC_LAT MLC_LON MLC_CLASS MLC_WIND MLC_PRES USA_GUST BOM_GUST BOM_GUST_PER REUNION_GUST REUNION_GUST_PER USA_SEAHGT USA_SEARAD_NE USA_SEARAD_SE USA_SEARAD_SW USA_SEARAD_NW STORM_SPEED STORM_DIR
1992154N11258 1992 35 EP MM AGATHA 1992-06-01 12:00:00 TS 11.1000 -102.200 25 1003 hurdat_epa main 682 656 O_____________ hurdat_epa EP011992 11.1000 -102.200 TD 25 1003 -1 8 342
1992154N11258 1992 35 EP MM AGATHA 1992-06-01 15:00:00 TS 11.4525 -102.322 main 646 620 P_____________ EP011992 11.4525 -102.322 TD 27 1002 -1 7 344
1992154N11258 1992 35 EP MM AGATHA 1992-06-01 18:00:00 TS 11.8000 -102.400 30 1002 hurdat_epa main 620 591 O_____________ hurdat_epa EP011992 11.8000 -102.400 TD 30 1002 -1 7 354
1992154N11258 1992 35 EP MM AGATHA 1992-06-01 21:00:00 TS 12.1425 -102.408 main 591 552 P_____________ EP011992 12.1425 -102.408 TD 32 1001 -1 7 0
1992154N11258 1992 35 EP MM AGATHA 1992-06-02 00:00:00 TS 12.5000 -102.400 35 1001 hurdat_epa main 552 511 O_____________ hurdat_epa EP011992 12.5000 -102.400 TS 35 1001 0 7 357
1992154N11258 1992 35 EP MM AGATHA 1992-06-02 03:00:00 TS 12.8850 -102.442 main 511 472 P_____________ EP011992 12.8850 -102.442 TS 40 1000 0 8 353
1992154N11258 1992 35 EP MM AGATHA 1992-06-02 06:00:00 TS 13.3000 -102.500 45 999 hurdat_epa main 472 429 O_____________ hurdat_epa EP011992 13.3000 -102.500 TS 45 999 0 9 353
1992154N11258 1992 35 EP MM AGATHA 1992-06-02 09:00:00 TS 13.7500 -102.550 main 423 382 P_____________ EP011992 13.7500 -102.550 TS 47 997 0 9 354
1992154N11258 1992 35 EP MM AGATHA 1992-06-02 12:00:00 TS 14.2000 -102.600 50 995 hurdat_epa main 382 342 O_____________ hurdat_epa EP011992 14.2000 -102.600 TS 50 995 0 9 354
1992154N11258 1992 35 EP MM AGATHA 1992-06-02 15:00:00 TS 14.6150 -102.643 main 342 309 P_____________ EP011992 14.6150 -102.643 TS 55 993 0 8 353
1992154N11258 1992 35 EP MM AGATHA 1992-06-02 18:00:00 TS 15.0000 -102.700 60 991 hurdat_epa main 309 288 O_____________ hurdat_epa EP011992 15.0000 -102.700 TS 60 991 0 8 349
1992154N11258 1992 35 EP MM AGATHA 1992-06-02 21:00:00 TS 15.3650 -102.793 main 279 254 P_____________ EP011992 15.3650 -102.792 TS 60 990 0 7 345
1992154N11258 1992 35 EP MM AGATHA 1992-06-03 00:00:00 TS 15.7000 -102.900 60 990 hurdat_epa main 254 225 O_____________ hurdat_epa EP011992 15.7000 -102.900 TS 60 990 0 7 344
1992154N11258 1992 35 EP MM AGATHA 1992-06-03 03:00:00 TS 16.0300 -103.000 main 225 197 P_____________ EP011992 16.0300 -103.000 TS 60 990 0 6 342
1992154N11258 1992 35 EP MM AGATHA 1992-06-03 06:00:00 TS 16.3000 -103.100 60 990 hurdat_epa main 197 179 O_____________ hurdat_epa EP011992 16.3000 -103.100 TS 60 990 0 5 336
1992154N11258 1992 35 EP MM AGATHA 1992-06-03 09:00:00 TS 16.4875 -103.215 main 179 173 P_____________ EP011992 16.4875 -103.215 TS 60 990 0 4 328
1992154N11258 1992 35 EP MM AGATHA 1992-06-03 12:00:00 TS 16.6000 -103.300 60 990 hurdat_epa main 173 162 O_____________ hurdat_epa EP011992 16.6000 -103.300 TS 60 990 0 2 334
1992154N11258 1992 35 EP MM AGATHA 1992-06-03 15:00:00 TS 16.6725 -103.308 main 162 162 P_____________ EP011992 16.6725 -103.308 TS 60 990 0 1 0
1992154N11258 1992 35 EP MM AGATHA 1992-06-03 18:00:00 TS 16.7000 -103.300 60 990 hurdat_epa main 162 162 O_____________ hurdat_epa EP011992 16.7000 -103.300 TS 60 990 0 0 309
1992154N11258 1992 35 EP MM AGATHA 1992-06-03 21:00:00 TS 16.7075 -103.343 main 162 162 P_____________ EP011992 16.7075 -103.343 TS 57 990 0 1 270
1992154N11258 1992 35 EP MM AGATHA 1992-06-04 00:00:00 TS 16.7000 -103.400 55 991 hurdat_epa main 165 165 O_____________ hurdat_epa EP011992 16.7000 -103.400 TS 55 991 0 1 257
1992154N11258 1992 35 EP MM AGATHA 1992-06-04 03:00:00 TS 16.6924 -103.413 main 165 165 P_____________ EP011992 16.6924 -103.413 TS 47 993 0 1 270
1992154N11258 1992 35 EP MM AGATHA 1992-06-04 06:00:00 TS 16.7000 -103.500 40 995 hurdat_epa main 169 169 O_____________ hurdat_epa EP011992 16.7000 -103.500 TS 40 995 0 3 278
1992154N11258 1992 35 EP MM AGATHA 1992-06-04 09:00:00 TS 16.7350 -103.740 main 176 169 P_____________ EP011992 16.7350 -103.740 TS 37 997 0 6 280
1992154N11258 1992 35 EP MM AGATHA 1992-06-04 12:00:00 TS 16.8000 -104.100 35 1000 hurdat_epa main 179 178 O_____________ hurdat_epa EP011992 16.8000 -104.100 TS 35 1000 0 8 283
1992154N11258 1992 35 EP MM AGATHA 1992-06-04 15:00:00 TS 16.9076 -104.535 main 189 189 P_____________ EP011992 16.9076 -104.535 TS 35 1001 0 9 283
1992154N11258 1992 35 EP MM AGATHA 1992-06-04 18:00:00 TS 17.0000 -105.000 35 1003 hurdat_epa main 215 215 O_____________ hurdat_epa EP011992 17.0000 -105.000 TS 35 1003 0 9 277
1992154N11258 1992 35 EP MM AGATHA 1992-06-04 21:00:00 TS 17.0075 -105.438 main 248 248 P_____________ EP011992 17.0075 -105.438 TS 32 1004 -1 8 270
1992154N11258 1992 35 EP MM AGATHA 1992-06-05 00:00:00 TS 17.0000 -105.800 30 1005 hurdat_epa main 267 267 O_____________ hurdat_epa EP011992 17.0000 -105.800 TD 30 1005 -1 6 273
1992154N11258 1992 35 EP MM AGATHA 1992-06-05 03:00:00 TS 17.0424 -106.037 main 276 272 P_____________ EP011992 17.0424 -106.037 TD 30 1006 -1 4 285
1992154N11258 1992 35 EP MM AGATHA 1992-06-05 06:00:00 TS 17.1000 -106.200 30 1007 hurdat_epa main 277 277 O_____________ hurdat_epa EP011992 17.1000 -106.200 TD 30 1007 -1 3 287
1992154N11258 1992 35 EP MM AGATHA 1992-06-05 09:00:00 TS 17.1425 -106.373 main 289 280 P_____________ EP011992 17.1425 -106.373 TD 27 1007 -1 3 289
1992154N11258 1992 35 EP MM AGATHA 1992-06-05 12:00:00 TS 17.2000 -106.500 25 1008 hurdat_epa main 286 278 O_____________ hurdat_epa EP011992 17.2000 -106.500 TD 25 1008 -1 2 308
1992154N11258 1992 35 EP MM AGATHA 1992-06-05 15:00:00 TS 17.2900 -106.567 main 285 276 P_____________ EP011992 17.2900 -106.567 TD 22 1008 -1 2 333
1992154N11258 1992 35 EP MM AGATHA 1992-06-05 18:00:00 TS 17.4000 -106.600 20 1009 hurdat_epa main 276 O_____________ hurdat_epa EP011992 17.4000 -106.600 TD 20 1009 -1 2 338

IBTrACS Databaseについて

本データベースは、米国NOAAが公開する1842年以降の世界の熱帯低気圧のベストトラックデータアーカイブInternational Best Track Archive for Climate Stewardship (IBTrACS)を、ウェブで閲覧しやすい形式に変換したものです。

最終更新日:2021-10-21